aviador You're here:

KGEV Decoded Metar

JEFFERSON in NC, USA
Report Time2017-12-16 18:30:00
UTC Time2017-12-16 18:53:23
Flight Rules vfr VFR
Wind290° at 08 kt
W.Decomp.*RWY 28: 7.7 kt HW 2.3 kt RCW
W.Rank290° ranks 2
Current wind is below 290° avg. (10.4)
Visibility9999 m
Phenomena:N/A
Clouds:N/A
Expected CloudBase > 5,600 ft AGL from Temp-Dew spread
CeilingNone
Temp06°C (ISA -3)
Dew Point-8°C (36% RH)
AAT0.2°C
QNH1020 hPa
Density Alt2,677 ft
Elevation3,179 ft
Report Wrong Elevation
Raw Report
METAR KGEV 161830Z AUTO 29008KT 10SM CLR 06/M08 A3013 RMK AO2 T00551078=

Extra information for KGEV:More info

Metar Taf Metar & Taf Last 4 Metars F.Rules Stats Wind Profile Meteogram Temp Stats Airport Information Weather charts Add Link Nearby VenuesMetar ALERT Operation Metar Decoded Social comments

AIRNAV info for KGEV